首页
METAR-TAF:

METAR-TAF

机场 :

成都双流国际机场

成都, 中华人民共和国

纬度: 30-40N, 经度: 104-01E, 海拔: 508米

当前天气观测

该预报发布于16分钟前的03:00 UTC
风速4节,风向北转西北,在西转西北之间变化
温度 23°C
湿度 83%
气压 1006 hPa
能见度10公里或以上
散云层高于1000英尺
散云层高于3300英尺
小阵雨,

METAR: ZUUU 280300Z 33002MPS 290V350 9999 -SHRA SCT010 SCT033 23/20 Q1006 NOSIG

时间: 11:16 (03:16 UTC)

预报

该预报发布于6小时和11分钟前的21:05 UTC
预报有效从28日的 00点(UTC)到 28日的 24点(UTC)
风速6节,风向北转东北
能見度: 5000
散云层高于4000英尺
小阵雨, 轻雾
短暂存在
从 28日的 12点(UTC)到 28日的 14点(UTC)
少量云层高于3000英尺, 积雨云.
散云层高于4000英尺
阵雨,

TAF: ZUUU 272105Z 2800/2824 02003MPS 5000 -SHRA BR SCT040 TX24/2807Z TN20/2822Z TEMPO 2812/2814 SHRA FEW030CB SCT040

超过4000个机场的气象观测和天气预报(METAR&TAF报告)。

可查询的气象台以黄色和红色小点在地图上表示。

将鼠标移到小点上方,可查看气象台名称。

然后点击查看天气观测和预报。

如需切换地图:点击带黑十字的绿色按钮放大地图;点击带横线的绿色按钮缩小地图;或者点击绿色箭头查看邻近地区的地图。


METAR-TAF: